Time;durP1;ratioP1;P1;durP2;ratioP2;P2;SDS_P1;SDS_P2;PMS_P1;PMS_P2;Temp;Humidity;BMP_temperature;BMP_pressure;BME280_temperature;BME280_humidity;BME280_pressure;Samples;Min_cycle;Max_cycle;Signal;HPM_P1;HPM_P2
2023/01/01 00:01:07;;;;;;;22.02;19.95;;;14.70;59.90;;;;;;5050229;28;20418;-66
2023/01/01 00:03:34;;;;;;;23.35;21.15;;;14.70;60.10;;;;;;5064680;28;20406;-68
2023/01/01 00:06:05;;;;;;;17.27;15.52;;;14.70;60.20;;;;;;5058182;28;20401;-67
2023/01/01 00:08:34;;;;;;;16.05;14.43;;;14.60;60.20;;;;;;5066016;28;20456;-68
2023/01/01 00:11:02;;;;;;;13.63;12.30;;;14.50;60.40;;;;;;5065197;28;20502;-66
2023/01/01 00:13:28;;;;;;;18.48;11.90;;;14.60;60.10;;;;;;5058512;28;20444;-66
2023/01/01 00:15:55;;;;;;;12.85;10.90;;;14.60;60.00;;;;;;5056686;28;20440;-66
2023/01/01 00:18:22;;;;;;;12.75;10.25;;;14.50;60.00;;;;;;5050617;28;20421;-66
2023/01/01 00:20:49;;;;;;;11.60;9.40;;;14.50;60.10;;;;;;5035802;28;20413;-66
2023/01/01 00:23:15;;;;;;;9.88;8.98;;;14.50;59.90;;;;;;5048516;28;20417;-65
2023/01/01 00:25:44;;;;;;;9.90;8.23;;;14.50;59.60;;;;;;5049364;28;20420;-67
2023/01/01 00:28:10;;;;;;;9.40;8.00;;;14.50;59.60;;;;;;5051405;28;20429;-65
2023/01/01 00:30:40;;;;;;;10.35;7.90;;;14.40;60.00;;;;;;5055718;28;20417;-66
2023/01/01 00:33:07;;;;;;;9.80;7.30;;;14.30;60.30;;;;;;5048634;28;20428;-68
2023/01/01 00:35:34;;;;;;;9.70;6.28;;;14.20;60.50;;;;;;5050945;28;20409;-66
2023/01/01 00:38:01;;;;;;;8.35;5.93;;;14.20;60.60;;;;;;5049245;28;20409;-66
2023/01/01 00:40:27;;;;;;;7.13;5.80;;;14.20;60.60;;;;;;5049840;28;20417;-65
2023/01/01 00:42:55;;;;;;;6.68;5.20;;;14.20;61.20;;;;;;5047810;28;20433;-66
2023/01/01 00:45:22;;;;;;;5.70;4.90;;;14.30;59.30;;;;;;5049657;28;20417;-66
2023/01/01 00:47:49;;;;;;;7.00;4.90;;;14.40;59.10;;;;;;5048934;28;20780;-66
2023/01/01 00:50:16;;;;;;;7.43;4.80;;;14.40;58.70;;;;;;5049540;28;20413;-65
2023/01/01 00:52:43;;;;;;;7.60;4.10;;;14.40;59.00;;;;;;5047597;28;20421;-68
2023/01/01 00:55:10;;;;;;;4.28;3.67;;;14.40;58.00;;;;;;5049234;28;20417;-67
2023/01/01 00:57:37;;;;;;;5.43;3.78;;;14.40;58.40;;;;;;5047304;28;20464;-67
2023/01/01 01:00:07;;;;;;;4.07;2.90;;;14.30;58.80;;;;;;5048975;28;20933;-66
2023/01/01 01:02:34;;;;;;;3.70;2.90;;;14.30;58.20;;;;;;5047318;28;20409;-66
2023/01/01 01:05:02;;;;;;;4.57;2.90;;;14.30;58.10;;;;;;5051163;28;20440;-67
2023/01/01 01:07:34;;;;;;;3.63;3.00;;;14.30;58.10;;;;;;5050291;28;20420;-67
2023/01/01 01:10:01;;;;;;;3.80;3.00;;;14.30;58.00;;;;;;5052385;28;20425;-66
2023/01/01 01:12:27;;;;;;;6.20;3.10;;;14.30;58.40;;;;;;5046848;28;20456;-66
2023/01/01 01:14:54;;;;;;;3.60;3.00;;;14.20;58.60;;;;;;5049082;28;20422;-69
2023/01/01 01:17:22;;;;;;;3.55;2.50;;;14.10;58.80;;;;;;5048150;28;20924;-67
2023/01/01 01:19:49;;;;;;;3.50;2.80;;;14.10;59.00;;;;;;5047711;28;20500;-66
2023/01/01 01:22:16;;;;;;;3.87;2.60;;;14.10;58.40;;;;;;5046463;28;20413;-67
2023/01/01 01:24:42;;;;;;;3.93;2.70;;;14.10;58.60;;;;;;5048063;28;20425;-66
2023/01/01 01:27:09;;;;;;;3.90;2.53;;;14.10;58.80;;;;;;5047142;28;20436;-66
2023/01/01 01:29:36;;;;;;;3.63;2.73;;;14.20;58.30;;;;;;5047936;28;20437;-65
2023/01/01 01:32:03;;;;;;;2.85;2.20;;;14.10;58.30;;;;;;5048057;28;20413;-65
2023/01/01 01:34:31;;;;;;;2.95;2.38;;;14.20;58.20;;;;;;5046988;28;20417;-66
2023/01/01 01:36:58;;;;;;;3.65;2.40;;;14.20;57.90;;;;;;5046068;28;20437;-66
2023/01/01 01:39:24;;;;;;;3.40;2.58;;;14.20;57.50;;;;;;5050999;28;20424;-67
2023/01/01 01:41:51;;;;;;;3.38;1.98;;;14.10;57.70;;;;;;5052970;28;20433;-66
2023/01/01 01:44:48;;;;;;;3.20;2.30;;;14.10;57.60;;;;;;5050533;28;20803;-67
2023/01/01 01:47:17;;;;;;;3.50;2.10;;;14.10;57.00;;;;;;5051641;28;20420;-67
2023/01/01 01:49:46;;;;;;;3.27;2.00;;;14.10;57.00;;;;;;5056478;28;20529;-66
2023/01/01 01:52:13;;;;;;;2.58;1.90;;;14.10;57.10;;;;;;5059208;28;20413;-66
2023/01/01 01:54:40;;;;;;;2.33;1.70;;;14.20;56.20;;;;;;5066478;28;20413;-66
2023/01/01 01:57:11;;;;;;;2.70;1.60;;;14.30;56.30;;;;;;5062732;28;20429;-67
2023/01/01 01:59:43;;;;;;;5.25;1.83;;;14.30;56.00;;;;;;5057952;28;20409;-64
2023/01/01 02:02:15;;;;;;;3.08;1.50;;;14.30;55.60;;;;;;5052646;28;21155;-67
2023/01/01 02:04:43;;;;;;;2.55;1.40;;;14.30;55.40;;;;;;5053373;28;20932;-66
2023/01/01 02:07:12;;;;;;;2.30;1.80;;;14.30;55.40;;;;;;5051456;28;20506;-67
2023/01/01 02:09:39;;;;;;;2.50;1.70;;;14.40;55.30;;;;;;5054175;28;20492;-66
2023/01/01 02:12:06;;;;;;;3.70;2.70;;;14.30;55.50;;;;;;5053808;28;20440;-65
2023/01/01 02:14:33;;;;;;;3.58;2.90;;;14.30;55.40;;;;;;5058486;28;20417;-66
2023/01/01 02:17:06;;;;;;;4.40;3.92;;;14.30;55.20;;;;;;5059871;28;20915;-65
2023/01/01 02:19:44;;;;;;;4.18;3.60;;;14.30;55.60;;;;;;5062176;28;21116;-66
2023/01/01 02:22:16;;;;;;;3.70;3.40;;;14.30;55.70;;;;;;5058437;28;20911;-66
2023/01/01 02:24:55;;;;;;;4.57;2.65;;;14.30;55.30;;;;;;5056830;28;20428;-68
2023/01/01 02:27:33;;;;;;;4.97;3.65;;;14.40;54.50;;;;;;5052298;28;20482;-66
2023/01/01 02:30:04;;;;;;;3.85;2.30;;;14.50;54.70;;;;;;5053425;28;20439;-64
2023/01/01 02:32:37;;;;;;;3.13;1.77;;;14.50;54.60;;;;;;5056044;28;20436;-64
2023/01/01 02:37:52;;;;;;;2.72;1.63;;;14.50;54.70;;;;;;5054579;28;20409;-64
2023/01/01 02:40:23;;;;;;;2.88;1.70;;;14.60;54.30;;;;;;5056630;28;21193;-67
2023/01/01 02:42:51;;;;;;;3.50;1.67;;;14.50;54.80;;;;;;5057607;28;20444;-65
2023/01/01 02:45:19;;;;;;;3.20;1.70;;;14.50;55.00;;;;;;5057833;28;20417;-67
2023/01/01 02:47:46;;;;;;;4.22;1.90;;;14.50;54.50;;;;;;5058114;28;20424;-66
2023/01/01 02:50:16;;;;;;;2.20;1.60;;;14.50;54.30;;;;;;5059136;28;20437;-66
2023/01/01 02:53:03;;;;;;;2.97;1.50;;;14.50;54.60;;;;;;5057442;28;20895;-66
2023/01/01 02:55:39;;;;;;;2.47;1.50;;;14.60;54.30;;;;;;5061111;28;20413;-66
2023/01/01 03:01:13;;;;;;;2.60;1.20;;;14.60;54.90;;;;;;4997608;28;20489;-66
2023/01/01 03:03:45;;;;;;;5.00;2.00;;;14.60;54.20;;;;;;5052146;28;20405;-67
2023/01/01 03:06:23;;;;;;;3.08;1.58;;;14.60;54.80;;;;;;5051641;28;20424;-66
2023/01/01 03:08:58;;;;;;;4.50;1.80;;;14.60;54.40;;;;;;5053767;28;20432;-68
2023/01/01 03:11:32;;;;;;;3.78;1.90;;;14.60;54.70;;;;;;5052596;28;20444;-67
2023/01/01 03:14:05;;;;;;;3.10;1.60;;;14.60;54.70;;;;;;5057866;28;20401;-66
2023/01/01 03:16:38;;;;;;;2.03;1.42;;;14.50;54.70;;;;;;5054707;28;20908;-67
2023/01/01 03:19:10;;;;;;;1.77;1.48;;;14.60;54.50;;;;;;5065163;28;20401;-66
2023/01/01 03:21:41;;;;;;;2.40;1.40;;;14.60;54.60;;;;;;5061909;28;20417;-66
2023/01/01 03:24:16;;;;;;;3.42;1.50;;;14.70;54.50;;;;;;5059206;28;20409;-66
2023/01/01 03:26:45;;;;;;;4.10;1.50;;;14.70;54.30;;;;;;5046281;28;20425;-65
2023/01/01 03:29:13;;;;;;;3.30;1.50;;;14.70;54.40;;;;;;5047746;28;20425;-65
2023/01/01 03:31:44;;;;;;;2.70;1.55;;;14.70;55.00;;;;;;5054793;28;20409;-64
2023/01/01 03:34:16;;;;;;;3.00;1.80;;;14.70;54.60;;;;;;5051441;28;20417;-67
2023/01/01 03:36:46;;;;;;;3.60;1.80;;;14.70;55.20;;;;;;5051740;28;20559;-66
2023/01/01 03:39:17;;;;;;;4.22;1.63;;;14.70;55.10;;;;;;5051844;28;20409;-65
2023/01/01 03:41:48;;;;;;;2.13;1.40;;;14.70;55.00;;;;;;5048899;28;20444;-66
2023/01/01 03:44:22;;;;;;;3.38;1.58;;;14.70;55.10;;;;;;5041115;28;20452;-65
2023/01/01 03:46:51;;;;;;;3.03;1.50;;;14.70;55.60;;;;;;5049530;28;20428;-67
2023/01/01 03:49:19;;;;;;;3.60;1.50;;;14.70;55.10;;;;;;5049147;28;20421;-67
2023/01/01 03:52:11;;;;;;;2.40;1.40;;;14.70;55.90;;;;;;5048427;28;20424;-67
2023/01/01 03:54:45;;;;;;;4.30;1.60;;;14.70;55.60;;;;;;5049488;28;20425;-66
2023/01/01 03:57:20;;;;;;;2.40;1.35;;;14.80;55.60;;;;;;5049485;28;20433;-65
2023/01/01 03:59:53;;;;;;;3.87;1.70;;;14.80;55.70;;;;;;5052062;28;20432;-66
2023/01/01 04:02:25;;;;;;;3.40;1.60;;;14.70;56.00;;;;;;5050407;28;20417;-67
2023/01/01 04:04:52;;;;;;;2.10;1.40;;;14.70;56.30;;;;;;5050675;28;20422;-65
2023/01/01 04:07:20;;;;;;;3.37;1.60;;;14.70;56.00;;;;;;5049593;28;20528;-65
2023/01/01 04:09:50;;;;;;;2.78;1.70;;;14.80;56.10;;;;;;5049241;28;20436;-66
2023/01/01 04:12:18;;;;;;;3.20;1.60;;;14.80;56.40;;;;;;5041946;28;20424;-66
2023/01/01 04:14:44;;;;;;;5.13;1.90;;;14.80;56.50;;;;;;5049328;28;21060;-66
2023/01/01 04:17:12;;;;;;;2.58;1.70;;;14.80;56.30;;;;;;5049236;28;20421;-65
2023/01/01 04:19:40;;;;;;;4.63;1.48;;;14.70;56.90;;;;;;5049926;28;20418;-67
2023/01/01 04:22:07;;;;;;;2.50;1.40;;;14.70;56.60;;;;;;5049039;28;20499;-64
2023/01/01 04:24:34;;;;;;;2.95;1.60;;;14.80;57.30;;;;;;5047977;28;20420;-66
2023/01/01 04:27:01;;;;;;;2.20;1.40;;;14.80;56.50;;;;;;5056399;28;20455;-65
2023/01/01 04:29:27;;;;;;;4.40;1.50;;;14.80;56.60;;;;;;5058148;28;20433;-66
2023/01/01 04:31:54;;;;;;;5.15;1.60;;;14.80;56.80;;;;;;5055233;28;20927;-66
2023/01/01 04:34:21;;;;;;;2.63;1.40;;;14.80;56.90;;;;;;5050543;28;20432;-67
2023/01/01 04:36:49;;;;;;;3.05;1.60;;;14.80;57.20;;;;;;5047783;28;20429;-65
2023/01/01 04:39:16;;;;;;;2.50;1.47;;;14.80;57.10;;;;;;5048726;28;20457;-65
2023/01/01 04:41:43;;;;;;;3.80;1.60;;;14.80;57.10;;;;;;5047060;28;20429;-65
2023/01/01 04:44:10;;;;;;;3.95;1.80;;;14.80;57.40;;;;;;5048550;28;20916;-66
2023/01/01 04:46:37;;;;;;;2.30;1.65;;;14.80;57.80;;;;;;5051941;28;20413;-66
2023/01/01 04:49:03;;;;;;;3.25;1.90;;;14.70;57.80;;;;;;5047849;28;20413;-65
2023/01/01 04:51:30;;;;;;;3.63;1.83;;;14.70;57.70;;;;;;5047212;28;20413;-65
2023/01/01 04:53:58;;;;;;;2.20;1.60;;;14.70;57.70;;;;;;5049223;28;20432;-67
2023/01/01 04:56:25;;;;;;;4.47;1.70;;;14.70;58.10;;;;;;5064054;28;20440;-65
2023/01/01 04:58:52;;;;;;;4.65;1.83;;;14.70;58.30;;;;;;5055705;28;20938;-66
2023/01/01 05:01:21;;;;;;;4.20;1.90;;;14.60;58.50;;;;;;5056177;28;20437;-65
2023/01/01 05:03:48;;;;;;;3.25;1.60;;;14.60;58.90;;;;;;5047643;28;20417;-67
2023/01/01 05:06:16;;;;;;;4.93;1.85;;;14.60;58.90;;;;;;5047995;28;20413;-67
2023/01/01 05:08:45;;;;;;;4.63;1.90;;;14.60;58.90;;;;;;5047584;28;20417;-66
2023/01/01 05:11:14;;;;;;;5.00;1.90;;;14.60;59.10;;;;;;5046294;28;20435;-66
2023/01/01 05:13:43;;;;;;;3.03;1.60;;;14.50;59.20;;;;;;5046892;28;20425;-67
2023/01/01 05:16:11;;;;;;;4.68;1.70;;;14.50;59.30;;;;;;5048286;28;20421;-66
2023/01/01 05:18:39;;;;;;;3.28;1.60;;;14.50;59.70;;;;;;5047453;28;20412;-65
2023/01/01 05:21:08;;;;;;;2.40;1.60;;;14.40;60.00;;;;;;5047576;28;20429;-65
2023/01/01 05:23:35;;;;;;;3.35;1.77;;;14.40;60.20;;;;;;5046730;28;20420;-66
2023/01/01 05:26:09;;;;;;;2.72;1.42;;;14.40;60.30;;;;;;5046604;28;20512;-67
2023/01/01 05:28:38;;;;;;;2.42;1.83;;;14.40;60.20;;;;;;5048064;28;20413;-66
2023/01/01 05:31:07;;;;;;;2.80;1.60;;;14.40;60.60;;;;;;5046071;28;20433;-65
2023/01/01 05:33:34;;;;;;;3.40;1.70;;;14.40;61.00;;;;;;5046249;28;20904;-65
2023/01/01 05:36:01;;;;;;;2.80;1.73;;;14.30;61.20;;;;;;5046672;28;20650;-64
2023/01/01 05:38:27;;;;;;;3.90;1.70;;;14.30;61.30;;;;;;5046832;28;20425;-65
2023/01/01 05:40:54;;;;;;;2.05;1.40;;;14.30;61.50;;;;;;5046124;28;20429;-66
2023/01/01 05:43:22;;;;;;;4.00;2.22;;;14.30;61.60;;;;;;5046646;28;20413;-65
2023/01/01 05:45:58;;;;;;;3.20;1.92;;;14.30;61.70;;;;;;5047966;28;20413;-66
2023/01/01 05:48:25;;;;;;;2.20;1.60;;;14.20;62.00;;;;;;5047139;28;20421;-66
2023/01/01 05:50:52;;;;;;;3.60;1.70;;;14.20;62.60;;;;;;5046510;28;20425;-66
2023/01/01 05:53:18;;;;;;;3.72;1.88;;;14.20;62.30;;;;;;5046190;28;20420;-66
2023/01/01 05:55:51;;;;;;;1.95;1.42;;;14.30;62.70;;;;;;5046316;28;20441;-64
2023/01/01 05:58:18;;;;;;;3.40;1.90;;;14.20;62.60;;;;;;5040100;28;20945;-65
2023/01/01 06:00:45;;;;;;;2.88;2.10;;;14.20;62.70;;;;;;5047032;28;20429;-65
2023/01/01 06:03:13;;;;;;;2.00;1.63;;;14.30;63.00;;;;;;5045841;28;20418;-66
2023/01/01 06:05:39;;;;;;;4.55;1.85;;;14.30;62.70;;;;;;5048856;28;20433;-65
2023/01/01 06:08:06;;;;;;;3.20;1.75;;;14.30;63.00;;;;;;5045680;28;20803;-65
2023/01/01 06:10:33;;;;;;;2.80;1.50;;;14.30;63.30;;;;;;5047361;28;20996;-65
2023/01/01 06:12:59;;;;;;;3.55;1.70;;;14.30;63.70;;;;;;5044824;28;20452;-67
2023/01/01 06:15:26;;;;;;;4.80;1.75;;;14.20;63.40;;;;;;5045312;28;20458;-66
2023/01/01 06:17:53;;;;;;;3.57;1.73;;;14.20;64.30;;;;;;5057163;28;20442;-67
2023/01/01 06:20:21;;;;;;;2.50;1.70;;;14.20;64.50;;;;;;5048820;28;20423;-68
2023/01/01 06:22:48;;;;;;;3.00;1.70;;;14.20;65.40;;;;;;5035573;28;20420;-67
2023/01/01 06:27:46;;;;;;;3.97;1.70;;;14.10;66.00;;;;;;5097192;22;20433;-68
2023/01/01 06:30:13;;;;;;;4.85;2.00;;;14.10;66.00;;;;;;5081194;28;20422;-68
2023/01/01 06:32:40;;;;;;;3.95;1.83;;;14.10;65.80;;;;;;5082955;28;20441;-68
2023/01/01 06:35:07;;;;;;;3.03;2.05;;;14.10;65.80;;;;;;5086013;28;20425;-68
2023/01/01 06:37:35;;;;;;;3.28;2.00;;;14.10;66.30;;;;;;5065888;28;20715;-67
2023/01/01 06:40:02;;;;;;;3.63;2.00;;;14.10;65.80;;;;;;5079350;28;20968;-68
2023/01/01 06:42:29;;;;;;;4.10;2.10;;;14.10;66.20;;;;;;5085052;28;20433;-69
2023/01/01 06:44:56;;;;;;;3.00;2.00;;;14.10;66.30;;;;;;5085487;28;20433;-69
2023/01/01 06:47:22;;;;;;;4.73;1.97;;;14.10;66.70;;;;;;5082900;28;20518;-67
2023/01/01 06:49:49;;;;;;;3.10;2.10;;;14.10;66.40;;;;;;5085038;28;20535;-68
2023/01/01 06:52:16;;;;;;;4.07;1.90;;;14.10;66.30;;;;;;5084466;28;20481;-69
2023/01/01 06:54:44;;;;;;;3.03;1.80;;;14.10;66.60;;;;;;5085275;28;20420;-68
2023/01/01 06:57:11;;;;;;;3.55;2.10;;;14.10;66.30;;;;;;5081481;28;21025;-68
2023/01/01 06:59:37;;;;;;;3.90;2.17;;;14.10;66.60;;;;;;5088045;28;20452;-68
2023/01/01 07:02:04;;;;;;;3.92;1.90;;;14.10;66.80;;;;;;5087381;28;20416;-67
2023/01/01 07:04:31;;;;;;;3.38;1.90;;;14.20;66.50;;;;;;5083324;28;21267;-68
2023/01/01 07:07:00;;;;;;;3.55;2.00;;;14.20;66.80;;;;;;5085493;28;20426;-69
2023/01/01 07:09:26;;;;;;;4.20;1.90;;;14.20;66.70;;;;;;5087715;28;20470;-69
2023/01/01 07:11:54;;;;;;;3.38;2.10;;;14.20;66.90;;;;;;5086278;28;20433;-67
2023/01/01 07:14:21;;;;;;;3.63;2.00;;;14.20;67.30;;;;;;5086136;28;20482;-69
2023/01/01 07:16:48;;;;;;;4.80;2.00;;;14.20;67.20;;;;;;5086233;28;20468;-67
2023/01/01 07:19:15;;;;;;;4.65;1.73;;;14.20;67.10;;;;;;5087077;28;20418;-67
2023/01/01 07:21:44;;;;;;;5.03;2.20;;;14.10;67.70;;;;;;5079990;28;20410;-67
2023/01/01 07:24:12;;;;;;;3.75;2.00;;;14.20;67.70;;;;;;5085311;28;20511;-71
2023/01/01 07:26:39;;;;;;;3.65;2.20;;;14.20;67.40;;;;;;5077032;28;20885;-67
2023/01/01 07:29:08;;;;;;;4.03;1.92;;;14.30;67.60;;;;;;5084903;28;20515;-68
2023/01/01 07:31:35;;;;;;;4.57;2.30;;;14.30;66.90;;;;;;5085076;28;20430;-69
2023/01/01 07:34:02;;;;;;;3.63;2.10;;;14.40;67.10;;;;;;5084505;28;20495;-69
2023/01/01 07:36:29;;;;;;;3.60;2.00;;;14.40;67.10;;;;;;5081866;28;20426;-69
2023/01/01 07:38:55;;;;;;;3.63;2.00;;;14.40;67.80;;;;;;5085478;28;20417;-69
2023/01/01 07:41:22;;;;;;;2.78;1.83;;;14.50;66.70;;;;;;5080331;28;20428;-68
2023/01/01 07:43:49;;;;;;;2.80;1.90;;;14.50;67.40;;;;;;5078568;28;20408;-69
2023/01/01 07:46:18;;;;;;;3.80;2.08;;;14.50;67.10;;;;;;5077892;28;20900;-69
2023/01/01 07:48:45;;;;;;;3.03;2.00;;;14.50;66.80;;;;;;5066381;28;20457;-69
2023/01/01 07:51:12;;;;;;;5.95;1.70;;;14.50;67.20;;;;;;5075646;28;20421;-69
2023/01/01 07:53:38;;;;;;;3.90;1.80;;;14.50;66.60;;;;;;5073079;28;20432;-69
2023/01/01 07:56:06;;;;;;;4.37;2.23;;;14.60;66.90;;;;;;5076148;28;20527;-69
2023/01/01 07:58:33;;;;;;;3.30;1.90;;;14.60;66.60;;;;;;5083516;28;20596;-69
2023/01/01 08:00:59;;;;;;;3.40;1.80;;;14.60;66.60;;;;;;5080622;28;20413;-69
2023/01/01 08:03:27;;;;;;;4.05;2.10;;;14.60;67.60;;;;;;5082849;28;20440;-68
2023/01/01 08:05:54;;;;;;;3.05;2.20;;;14.60;67.60;;;;;;5081095;28;20444;-69
2023/01/01 08:08:21;;;;;;;5.22;2.13;;;14.50;67.40;;;;;;5076967;28;20435;-69
2023/01/01 08:10:48;;;;;;;3.45;1.80;;;14.50;67.60;;;;;;5064351;28;20774;-69
2023/01/01 08:13:14;;;;;;;3.08;2.20;;;14.50;68.50;;;;;;5082447;28;20428;-68
2023/01/01 08:15:41;;;;;;;3.40;2.17;;;14.50;67.90;;;;;;5085273;28;20432;-69
2023/01/01 08:18:09;;;;;;;3.03;2.10;;;14.60;67.60;;;;;;5082927;28;20772;-69
2023/01/01 08:20:37;;;;;;;4.38;2.67;;;14.60;67.80;;;;;;5085474;28;20410;-70
2023/01/01 08:23:04;;;;;;;4.00;1.65;;;14.60;67.80;;;;;;5080166;28;20426;-69
2023/01/01 08:25:31;;;;;;;3.40;1.80;;;14.60;67.90;;;;;;5083453;28;20414;-68
2023/01/01 08:27:58;;;;;;;5.22;1.90;;;14.60;68.10;;;;;;5082387;28;20436;-69
2023/01/01 08:30:24;;;;;;;4.35;1.92;;;14.60;68.20;;;;;;5084537;28;20851;-69
2023/01/01 08:32:51;;;;;;;4.20;1.70;;;14.60;68.80;;;;;;5080085;28;20429;-69
2023/01/01 08:35:18;;;;;;;3.67;1.85;;;14.50;68.80;;;;;;5084921;28;20459;-69
2023/01/01 08:37:46;;;;;;;3.50;2.10;;;14.50;69.00;;;;;;5069388;28;20422;-69
2023/01/01 08:40:13;;;;;;;5.03;2.20;;;14.50;69.70;;;;;;5084601;28;20448;-68
2023/01/01 08:42:40;;;;;;;4.50;2.10;;;14.50;70.20;;;;;;5077938;28;20430;-69
2023/01/01 08:45:08;;;;;;;5.20;2.00;;;14.50;70.40;;;;;;5083444;28;20428;-69
2023/01/01 08:47:35;;;;;;;3.80;2.00;;;14.40;70.60;;;;;;5083285;28;20425;-68
2023/01/01 08:50:02;;;;;;;3.83;1.95;;;14.40;71.10;;;;;;5084849;28;20500;-67
2023/01/01 08:52:28;;;;;;;3.25;2.15;;;14.40;72.10;;;;;;5078735;28;20753;-68
2023/01/01 08:54:56;;;;;;;4.18;1.90;;;14.50;71.30;;;;;;5080897;28;20903;-69
2023/01/01 08:57:23;;;;;;;5.22;2.40;;;14.40;71.80;;;;;;5077242;28;20431;-69
2023/01/01 08:59:50;;;;;;;5.78;1.90;;;14.40;72.00;;;;;;5081205;28;20418;-69
2023/01/01 09:02:16;;;;;;;4.00;2.00;;;14.40;72.10;;;;;;5076445;28;20415;-69
2023/01/01 09:04:43;;;;;;;3.63;2.10;;;14.40;72.20;;;;;;5077546;28;20417;-68
2023/01/01 09:07:10;;;;;;;3.25;2.17;;;14.40;72.60;;;;;;5083066;28;20416;-69
2023/01/01 09:09:36;;;;;;;3.90;1.70;;;14.40;72.90;;;;;;5081307;28;20430;-68
2023/01/01 09:12:08;;;;;;;3.40;2.10;;;14.40;73.40;;;;;;5081091;28;20428;-69
2023/01/01 09:14:35;;;;;;;2.20;1.60;;;14.40;73.50;;;;;;5083083;28;20489;-69
2023/01/01 09:17:02;;;;;;;3.47;1.75;;;14.30;73.80;;;;;;5082249;28;20425;-69
2023/01/01 09:19:28;;;;;;;2.42;1.60;;;14.30;74.10;;;;;;5082967;28;20410;-70
2023/01/01 09:21:55;;;;;;;3.60;2.05;;;14.30;74.10;;;;;;5080021;28;20430;-66
2023/01/01 09:24:22;;;;;;;3.75;2.30;;;14.30;74.40;;;;;;5081033;28;20436;-69
2023/01/01 09:26:49;;;;;;;4.43;2.23;;;14.40;73.90;;;;;;5070295;28;20576;-69
2023/01/01 09:29:19;;;;;;;4.40;2.10;;;14.30;74.10;;;;;;5082931;28;20947;-69
2023/01/01 09:31:46;;;;;;;3.70;1.70;;;14.30;74.10;;;;;;5083281;28;20429;-68
2023/01/01 09:34:13;;;;;;;4.40;2.05;;;14.30;74.10;;;;;;5081660;28;20831;-68
2023/01/01 09:36:39;;;;;;;3.83;1.70;;;14.30;74.20;;;;;;5079863;28;20429;-68
2023/01/01 09:39:06;;;;;;;3.60;1.90;;;14.40;74.00;;;;;;5081393;28;20479;-69
2023/01/01 09:41:46;;;;;;;3.60;1.90;;;14.40;73.70;;;;;;5082556;28;20414;-69
2023/01/01 09:44:26;;;;;;;5.03;2.10;;;14.40;73.70;;;;;;5074749;28;20433;-70
2023/01/01 09:46:54;;;;;;;3.55;1.80;;;14.40;73.80;;;;;;5082769;28;20418;-67
2023/01/01 09:49:30;;;;;;;4.67;1.97;;;14.50;73.60;;;;;;5082723;28;20422;-67
2023/01/01 09:52:00;;;;;;;3.17;1.52;;;14.50;73.60;;;;;;5080305;28;20445;-66
2023/01/01 09:54:29;;;;;;;3.70;1.83;;;14.50;73.30;;;;;;5077103;28;20458;-68
2023/01/01 09:56:59;;;;;;;2.70;1.60;;;14.50;73.90;;;;;;5082892;28;20602;-70
2023/01/01 09:59:27;;;;;;;3.17;1.75;;;14.50;73.30;;;;;;5074591;28;20418;-67
2023/01/01 10:02:01;;;;;;;5.05;2.28;;;14.60;72.90;;;;;;5078070;28;21048;-67
2023/01/01 10:04:41;;;;;;;2.50;1.70;;;14.60;73.00;;;;;;5069875;28;20410;-68
2023/01/01 10:07:18;;;;;;;2.65;1.52;;;14.70;72.70;;;;;;5081711;28;20409;-69
2023/01/01 10:09:53;;;;;;;3.95;1.60;;;14.60;72.30;;;;;;5081499;28;20445;-69
2023/01/01 10:12:30;;;;;;;2.90;1.58;;;14.70;72.50;;;;;;5078826;28;20911;-69
2023/01/01 10:15:04;;;;;;;3.83;1.70;;;14.70;71.60;;;;;;5080615;28;20887;-69
2023/01/01 10:17:36;;;;;;;3.20;1.70;;;14.70;72.00;;;;;;5075221;28;20420;-68
2023/01/01 10:20:07;;;;;;;2.78;1.90;;;14.70;72.20;;;;;;5076596;28;20414;-69
2023/01/01 10:22:37;;;;;;;3.90;1.90;;;14.70;72.20;;;;;;5078056;28;20414;-69
2023/01/01 10:25:14;;;;;;;3.97;1.80;;;14.80;72.20;;;;;;5080925;28;20765;-68
2023/01/01 10:27:45;;;;;;;5.88;2.50;;;14.70;72.30;;;;;;5080103;28;20433;-69
2023/01/01 10:30:17;;;;;;;4.82;1.90;;;14.80;71.70;;;;;;5072691;28;20467;-69
2023/01/01 10:32:48;;;;;;;4.30;1.70;;;14.90;71.00;;;;;;5081193;28;20438;-70
2023/01/01 10:35:17;;;;;;;2.42;1.50;;;14.80;71.30;;;;;;5075179;28;20423;-67
2023/01/01 10:37:44;;;;;;;4.80;2.00;;;14.80;71.70;;;;;;5078706;28;20414;-67
2023/01/01 10:40:17;;;;;;;3.17;1.60;;;14.70;71.90;;;;;;5074704;28;21230;-70
2023/01/01 10:42:48;;;;;;;4.27;1.80;;;14.70;72.00;;;;;;5060037;28;20411;-69
2023/01/01 10:45:18;;;;;;;3.80;1.92;;;14.70;72.40;;;;;;5081433;28;20458;-67
2023/01/01 10:48:09;;;;;;;4.32;1.80;;;14.70;72.10;;;;;;5081656;28;20520;-69
2023/01/01 10:50:42;;;;;;;3.90;1.90;;;14.70;72.60;;;;;;5082732;28;20410;-68
2023/01/01 10:53:26;;;;;;;5.78;2.60;;;14.70;72.80;;;;;;5081253;28;20426;-69
2023/01/01 10:56:03;;;;;;;4.30;1.63;;;14.70;73.00;;;;;;5084982;28;20438;-70
2023/01/01 10:58:39;;;;;;;4.70;2.07;;;14.70;73.20;;;;;;5084738;28;20473;-69
2023/01/01 11:01:10;;;;;;;2.40;1.80;;;14.60;73.30;;;;;;5085220;28;20828;-68
2023/01/01 11:03:38;;;;;;;3.30;1.90;;;14.70;73.90;;;;;;5083931;28;21013;-68
2023/01/01 11:06:18;;;;;;;2.70;1.42;;;14.70;72.90;;;;;;5073007;28;20760;-69
2023/01/01 11:08:49;;;;;;;4.15;1.70;;;14.70;73.30;;;;;;5083075;28;20502;-69
2023/01/01 11:11:22;;;;;;;3.63;1.75;;;14.70;73.40;;;;;;5076901;28;20980;-69
2023/01/01 11:13:51;;;;;;;4.07;1.65;;;14.70;72.70;;;;;;5083525;28;20430;-68
2023/01/01 11:16:19;;;;;;;4.90;1.52;;;14.70;72.50;;;;;;5078587;28;20752;-69
2023/01/01 11:18:47;;;;;;;3.28;1.42;;;14.70;72.80;;;;;;5083062;28;20426;-67
2023/01/01 11:21:20;;;;;;;4.13;1.70;;;14.70;72.20;;;;;;5079092;28;20468;-69
2023/01/01 11:23:48;;;;;;;3.23;1.60;;;14.70;72.10;;;;;;5080336;28;20917;-69
2023/01/01 11:26:23;;;;;;;4.60;2.00;;;14.70;72.40;;;;;;5084391;28;20436;-68
2023/01/01 11:29:00;;;;;;;3.03;1.70;;;14.60;72.70;;;;;;5083840;28;20506;-69
2023/01/01 11:31:30;;;;;;;3.60;1.77;;;14.60;73.00;;;;;;5085085;28;20428;-68
2023/01/01 11:33:57;;;;;;;2.83;1.60;;;14.60;72.70;;;;;;5084366;28;20444;-72
2023/01/01 11:36:27;;;;;;;3.53;1.65;;;14.60;72.70;;;;;;5084641;28;20418;-68
2023/01/01 11:39:16;;;;;;;3.45;1.80;;;14.60;73.40;;;;;;5077783;28;20573;-69
2023/01/01 11:41:46;;;;;;;4.30;1.70;;;14.60;72.90;;;;;;5080448;28;20962;-68
2023/01/01 11:44:24;;;;;;;3.97;1.60;;;14.60;72.50;;;;;;5077801;28;20910;-68
2023/01/01 11:46:52;;;;;;;3.88;1.70;;;14.60;72.70;;;;;;5084891;28;20413;-69
2023/01/01 11:49:25;;;;;;;3.85;1.60;;;14.70;72.40;;;;;;5082509;28;20454;-69
2023/01/01 11:51:52;;;;;;;5.22;1.95;;;14.70;72.20;;;;;;5081888;28;20436;-68
2023/01/01 11:54:25;;;;;;;2.58;1.63;;;14.70;72.20;;;;;;5082682;28;20422;-69
2023/01/01 11:56:56;;;;;;;2.22;1.40;;;14.70;72.40;;;;;;5083981;28;20421;-68
2023/01/01 11:59:27;;;;;;;3.03;1.38;;;14.80;71.80;;;;;;5082455;28;20440;-70
2023/01/01 12:01:59;;;;;;;4.82;1.83;;;14.80;71.50;;;;;;5071762;28;20396;-69
2023/01/01 12:04:30;;;;;;;3.10;1.50;;;14.80;71.50;;;;;;5081040;28;20434;-69
2023/01/01 12:07:04;;;;;;;4.60;1.80;;;14.80;71.10;;;;;;5075880;28;20437;-68
2023/01/01 12:09:40;;;;;;;2.80;1.60;;;14.70;70.80;;;;;;5072145;28;20431;-68
2023/01/01 12:12:13;;;;;;;3.72;1.50;;;14.70;71.30;;;;;;5079053;28;20430;-69
2023/01/01 12:14:46;;;;;;;2.40;1.30;;;14.70;71.50;;;;;;5079525;28;20629;-69
2023/01/01 12:17:18;;;;;;;4.55;1.80;;;14.70;71.40;;;;;;5082465;28;20429;-68
2023/01/01 12:19:55;;;;;;;4.57;1.90;;;14.70;71.40;;;;;;5084332;28;20418;-69
2023/01/01 12:22:22;;;;;;;4.15;1.70;;;14.70;71.40;;;;;;5078596;28;20439;-69
2023/01/01 12:24:50;;;;;;;4.60;1.80;;;14.70;71.10;;;;;;5078376;28;20434;-68
2023/01/01 12:27:24;;;;;;;2.10;1.40;;;14.70;71.40;;;;;;5075357;28;20414;-69
2023/01/01 12:30:04;;;;;;;3.75;1.40;;;14.70;71.60;;;;;;5082378;28;20449;-69
2023/01/01 12:32:58;;;;;;;4.33;1.70;;;14.70;70.10;;;;;;5081916;28;20451;-69
2023/01/01 12:35:36;;;;;;;3.13;1.30;;;14.80;69.40;;;;;;5069797;28;20499;-69
2023/01/01 12:38:17;;;;;;;3.22;1.55;;;14.90;69.10;;;;;;5074730;28;20429;-69
2023/01/01 12:40:51;;;;;;;5.15;1.67;;;14.90;70.00;;;;;;5077322;28;20482;-69
2023/01/01 12:43:26;;;;;;;4.00;1.60;;;14.90;69.10;;;;;;5075291;28;20938;-68
2023/01/01 12:46:28;;;;;;;4.90;1.80;;;14.80;69.80;;;;;;5078653;28;20470;-69
2023/01/01 12:49:21;;;;;;;2.90;1.70;;;14.80;69.30;;;;;;5079325;28;20823;-69
2023/01/01 12:52:01;;;;;;;3.00;1.52;;;14.80;69.30;;;;;;5063123;28;20418;-69
2023/01/01 12:54:59;;;;;;;3.63;1.80;;;14.80;68.70;;;;;;5083273;28;20410;-69
2023/01/01 12:57:30;;;;;;;2.53;1.50;;;14.80;68.70;;;;;;5078185;28;20425;-69
2023/01/01 13:00:00;;;;;;;3.90;1.70;;;14.80;68.50;;;;;;5079340;28;20863;-68
2023/01/01 13:02:30;;;;;;;2.80;1.88;;;14.70;68.90;;;;;;5082130;28;20543;-69
2023/01/01 13:05:03;;;;;;;2.80;1.65;;;14.70;68.90;;;;;;5082864;28;20436;-69
2023/01/01 13:07:33;;;;;;;3.60;1.63;;;14.70;68.40;;;;;;5077615;28;20424;-69